Time;durP1;ratioP1;P1;durP2;ratioP2;P2;SDS_P1;SDS_P2;PMS_P1;PMS_P2;Temp;Humidity;BMP_temperature;BMP_pressure;BME280_temperature;BME280_humidity;BME280_pressure;Samples;Min_cycle;Max_cycle;Signal;HPM_P1;HPM_P2
2021/12/03 00:00:00;;;;;;;6.18;3.80;;;1.40;82.50;;;;;;5059254;28;20043;-84
2021/12/03 00:02:26;;;;;;;8.55;4.40;;;1.30;82.80;;;;;;5059556;28;20507;-86
2021/12/03 00:04:53;;;;;;;7.68;3.42;;;1.30;83.10;;;;;;5060947;28;20481;-76
2021/12/03 00:07:19;;;;;;;8.63;3.25;;;1.30;83.00;;;;;;5059082;28;20032;-82
2021/12/03 00:09:46;;;;;;;6.85;3.70;;;1.30;82.70;;;;;;5076105;28;20029;-80
2021/12/03 00:12:12;;;;;;;4.57;3.42;;;1.30;82.30;;;;;;5058629;28;20029;-80
2021/12/03 00:14:38;;;;;;;7.18;3.35;;;1.30;82.30;;;;;;5076587;28;20389;-81
2021/12/03 00:17:03;;;;;;;7.57;3.15;;;1.30;82.20;;;;;;5058296;28;20031;-81
2021/12/03 00:19:29;;;;;;;7.97;2.92;;;1.20;82.30;;;;;;5058079;28;20028;-80
2021/12/03 00:21:55;;;;;;;4.75;2.85;;;1.20;82.40;;;;;;5058912;28;20058;-77
2021/12/03 00:24:21;;;;;;;5.47;2.97;;;1.20;82.20;;;;;;5057758;28;20025;-76
2021/12/03 00:26:47;;;;;;;4.57;2.90;;;1.20;82.50;;;;;;5024664;28;20024;-78
2021/12/03 00:29:13;;;;;;;5.10;3.00;;;1.20;82.50;;;;;;5057117;28;20110;-78
2021/12/03 00:31:39;;;;;;;4.47;3.35;;;1.20;82.50;;;;;;5057496;28;20040;-80
2021/12/03 00:34:05;;;;;;;6.13;2.80;;;1.20;82.40;;;;;;5057428;28;20036;-80
2021/12/03 00:36:32;;;;;;;5.78;2.58;;;1.20;82.20;;;;;;5040676;28;20527;-76
2021/12/03 00:38:59;;;;;;;3.03;2.20;;;1.20;82.30;;;;;;5075503;28;20104;-77
2021/12/03 00:41:32;;;;;;;6.25;3.17;;;1.20;82.20;;;;;;5057242;28;20476;-77
2021/12/03 00:43:57;;;;;;;5.82;3.45;;;1.20;82.50;;;;;;5040817;28;20043;-76
2021/12/03 00:46:23;;;;;;;5.57;3.20;;;1.20;82.70;;;;;;5057207;28;20020;-77
2021/12/03 00:48:53;;;;;;;6.40;3.28;;;1.20;82.80;;;;;;5057029;28;20029;-76
2021/12/03 00:51:21;;;;;;;5.20;3.40;;;1.30;82.80;;;;;;5056987;28;20045;-76
2021/12/03 00:53:49;;;;;;;5.13;3.47;;;1.30;82.60;;;;;;5056834;28;20400;-78
2021/12/03 00:56:17;;;;;;;5.35;3.92;;;1.20;83.50;;;;;;5042060;28;20029;-84
2021/12/03 00:58:43;;;;;;;5.68;3.92;;;1.30;84.00;;;;;;5057556;28;20071;-85
2021/12/03 01:01:09;;;;;;;6.47;3.80;;;1.30;84.60;;;;;;5057368;28;20035;-83
2021/12/03 01:03:36;;;;;;;6.57;3.75;;;1.30;84.90;;;;;;5057461;28;20025;-85
2021/12/03 01:06:06;;;;;;;4.25;3.40;;;1.20;85.30;;;;;;5057446;28;20029;-86
2021/12/03 01:08:35;;;;;;;9.45;4.50;;;1.10;85.00;;;;;;5057297;28;20028;-84
2021/12/03 01:11:03;;;;;;;4.40;3.42;;;1.10;85.20;;;;;;5041497;28;20028;-86
2021/12/03 01:13:29;;;;;;;6.78;4.15;;;1.10;85.20;;;;;;5057202;28;20051;-85
2021/12/03 01:15:55;;;;;;;7.22;4.65;;;1.10;85.50;;;;;;5070980;28;20035;-81
2021/12/03 01:18:21;;;;;;;7.90;4.32;;;1.10;85.00;;;;;;5080331;28;20021;-79
2021/12/03 01:20:47;;;;;;;7.20;5.05;;;1.10;85.00;;;;;;5076203;28;20050;-82
2021/12/03 01:23:14;;;;;;;5.93;3.83;;;1.10;84.80;;;;;;5071373;28;20036;-84
2021/12/03 01:25:40;;;;;;;4.47;3.47;;;1.00;84.50;;;;;;5077215;28;20088;-78
2021/12/03 01:28:07;;;;;;;5.25;3.55;;;0.90;84.70;;;;;;5080661;28;20055;-78
2021/12/03 01:30:33;;;;;;;5.05;3.88;;;1.00;84.50;;;;;;5097754;28;20063;-76
2021/12/03 01:33:05;;;;;;;4.95;3.58;;;0.90;84.50;;;;;;5080487;28;20028;-82
2021/12/03 01:35:30;;;;;;;5.72;3.50;;;1.00;84.40;;;;;;5080459;28;20043;-83
2021/12/03 01:37:57;;;;;;;5.60;4.03;;;1.00;84.20;;;;;;5076031;28;20048;-78
2021/12/03 01:40:27;;;;;;;4.55;3.53;;;1.00;84.00;;;;;;5080130;28;20033;-78
2021/12/03 01:42:53;;;;;;;7.18;4.00;;;1.00;84.40;;;;;;5079987;28;20033;-83
2021/12/03 01:45:28;;;;;;;10.68;3.63;;;1.00;84.40;;;;;;5072107;28;20028;-84
2021/12/03 01:47:56;;;;;;;3.70;3.30;;;1.10;83.80;;;;;;5068574;28;20025;-86
2021/12/03 01:50:35;;;;;;;6.47;3.78;;;1.10;83.70;;;;;;5068188;28;20033;-78
2021/12/03 01:53:01;;;;;;;7.85;3.60;;;1.10;83.60;;;;;;5069546;28;20025;-85
2021/12/03 01:55:28;;;;;;;4.75;3.33;;;1.00;83.20;;;;;;5067195;28;20035;-86
2021/12/03 01:57:55;;;;;;;7.35;3.88;;;1.00;83.00;;;;;;5065108;28;20070;-85
2021/12/03 02:00:28;;;;;;;4.90;3.40;;;1.00;82.80;;;;;;5063761;28;20088;-85
2021/12/03 02:02:54;;;;;;;4.68;3.60;;;1.00;82.90;;;;;;5057050;28;20111;-86
2021/12/03 02:05:21;;;;;;;5.53;4.07;;;1.10;83.00;;;;;;5056795;28;20161;-86
2021/12/03 02:07:47;;;;;;;5.53;3.75;;;1.10;82.30;;;;;;5074644;28;20029;-84
2021/12/03 02:10:15;;;;;;;6.68;3.97;;;1.00;82.60;;;;;;5074690;28;20032;-85
2021/12/03 02:12:41;;;;;;;5.22;3.88;;;1.00;82.60;;;;;;5056901;28;20502;-80
2021/12/03 02:15:08;;;;;;;8.45;4.10;;;1.00;82.20;;;;;;5056543;28;20032;-85
2021/12/03 02:17:34;;;;;;;5.05;3.78;;;0.90;82.20;;;;;;5056185;28;20056;-83
2021/12/03 02:20:00;;;;;;;5.25;3.38;;;1.00;82.10;;;;;;5056756;28;20057;-82
2021/12/03 02:22:26;;;;;;;6.68;3.72;;;1.00;81.90;;;;;;5056203;28;20513;-84
2021/12/03 02:24:52;;;;;;;6.68;4.07;;;1.00;81.80;;;;;;5056418;28;20074;-82
2021/12/03 02:27:18;;;;;;;6.35;4.00;;;0.90;81.20;;;;;;5056262;28;20052;-78
2021/12/03 02:29:44;;;;;;;5.97;3.63;;;0.90;81.60;;;;;;5056538;28;20133;-82
2021/12/03 02:32:10;;;;;;;6.97;3.78;;;0.90;81.50;;;;;;5056244;28;20035;-85
2021/12/03 02:34:37;;;;;;;6.80;4.13;;;0.90;81.30;;;;;;5056316;28;20131;-85
2021/12/03 02:37:05;;;;;;;7.20;4.05;;;0.80;81.50;;;;;;5055741;28;20024;-86
2021/12/03 02:39:31;;;;;;;6.47;4.55;;;0.90;81.20;;;;;;5057511;28;20469;-84
2021/12/03 02:41:56;;;;;;;7.30;4.40;;;0.90;81.00;;;;;;5056612;28;20032;-84
2021/12/03 02:44:22;;;;;;;4.88;3.95;;;0.90;81.10;;;;;;5039458;28;20024;-85
2021/12/03 02:46:48;;;;;;;6.97;3.95;;;0.90;81.10;;;;;;5055499;28;20060;-85
2021/12/03 02:49:15;;;;;;;5.18;3.50;;;0.90;81.70;;;;;;5055560;28;20020;-84
2021/12/03 02:51:42;;;;;;;5.35;3.75;;;0.90;80.80;;;;;;5055857;28;20469;-86
2021/12/03 02:54:08;;;;;;;5.70;3.67;;;0.90;80.80;;;;;;5038936;28;20508;-85
2021/12/03 02:56:34;;;;;;;4.80;3.45;;;0.90;80.60;;;;;;5055304;28;20436;-85
2021/12/03 02:59:00;;;;;;;5.57;4.00;;;0.90;80.90;;;;;;5073579;28;20033;-83
2021/12/03 03:01:27;;;;;;;6.35;3.95;;;0.90;81.10;;;;;;5055587;28;20062;-85
2021/12/03 03:03:55;;;;;;;5.28;3.90;;;0.80;81.10;;;;;;5073850;28;20085;-84
2021/12/03 03:06:20;;;;;;;8.27;4.10;;;0.90;81.20;;;;;;5056036;28;20024;-85
2021/12/03 03:08:48;;;;;;;5.95;3.97;;;0.90;81.00;;;;;;5060169;28;20028;-83
2021/12/03 03:11:16;;;;;;;6.32;4.07;;;0.90;81.00;;;;;;5060402;28;20029;-84
2021/12/03 03:13:43;;;;;;;5.97;3.65;;;0.90;81.00;;;;;;5059108;28;20037;-84
2021/12/03 03:16:09;;;;;;;6.47;4.15;;;0.90;80.90;;;;;;5059330;28;20021;-84
2021/12/03 03:18:36;;;;;;;6.03;3.72;;;0.90;80.90;;;;;;5059761;28;20028;-84
2021/12/03 03:21:04;;;;;;;4.20;3.28;;;0.90;81.00;;;;;;5059405;28;20024;-80
2021/12/03 03:23:31;;;;;;;7.65;3.65;;;0.90;81.20;;;;;;5059202;28;20028;-84
2021/12/03 03:25:57;;;;;;;4.97;3.88;;;0.90;81.20;;;;;;5058969;28;20024;-83
2021/12/03 03:28:24;;;;;;;9.85;4.50;;;0.90;81.20;;;;;;5059016;28;20021;-81
2021/12/03 03:30:52;;;;;;;7.35;4.18;;;0.90;81.40;;;;;;5058443;28;20051;-81
2021/12/03 03:33:18;;;;;;;6.13;3.88;;;0.80;81.30;;;;;;5058244;28;20028;-82
2021/12/03 03:35:45;;;;;;;4.50;3.70;;;0.80;81.30;;;;;;5058503;28;20072;-80
2021/12/03 03:38:12;;;;;;;7.18;4.20;;;0.80;81.30;;;;;;5058383;28;20029;-82
2021/12/03 03:40:39;;;;;;;5.47;4.07;;;0.80;81.10;;;;;;5041975;28;20439;-79
2021/12/03 03:43:06;;;;;;;7.40;3.80;;;0.70;80.20;;;;;;5058784;28;20033;-79
2021/12/03 03:45:34;;;;;;;6.82;4.10;;;0.60;80.30;;;;;;5058467;28;20078;-76
2021/12/03 03:48:03;;;;;;;7.07;3.95;;;0.60;80.00;;;;;;5058471;28;20062;-80
2021/12/03 03:50:29;;;;;;;7.90;4.20;;;0.60;80.20;;;;;;5058510;28;20055;-79
2021/12/03 03:52:56;;;;;;;8.63;4.72;;;0.50;80.50;;;;;;5060102;28;20028;-78
2021/12/03 03:55:26;;;;;;;5.38;3.83;;;0.50;80.70;;;;;;5060756;28;20028;-79
2021/12/03 03:57:55;;;;;;;6.30;3.80;;;0.60;80.90;;;;;;5067035;28;20021;-76
2021/12/03 04:00:31;;;;;;;7.18;4.53;;;0.60;80.80;;;;;;5059261;28;20059;-75
2021/12/03 04:02:57;;;;;;;6.78;4.55;;;0.70;80.70;;;;;;5070754;28;20017;-76
2021/12/03 04:05:25;;;;;;;7.70;4.32;;;0.70;80.70;;;;;;5044963;28;20032;-80
2021/12/03 04:07:52;;;;;;;6.55;4.28;;;0.70;80.50;;;;;;5060629;28;20031;-86
2021/12/03 04:10:17;;;;;;;7.35;3.92;;;0.70;80.50;;;;;;5058781;28;20067;-79
2021/12/03 04:12:44;;;;;;;6.50;4.47;;;0.80;80.60;;;;;;5057815;28;20048;-77
2021/12/03 04:15:11;;;;;;;9.02;4.28;;;0.80;80.80;;;;;;5057938;28;20039;-80
2021/12/03 04:17:39;;;;;;;6.47;4.45;;;0.90;80.90;;;;;;5057715;28;20021;-80
2021/12/03 04:20:09;;;;;;;7.47;5.03;;;0.80;80.70;;;;;;5041186;28;20059;-79
2021/12/03 04:22:34;;;;;;;6.57;4.25;;;0.90;80.70;;;;;;5057463;28;20052;-78
2021/12/03 04:25:01;;;;;;;9.77;5.30;;;0.90;80.50;;;;;;5057951;28;20021;-78
2021/12/03 04:27:29;;;;;;;6.82;4.95;;;0.90;80.20;;;;;;5058260;28;20028;-82
2021/12/03 04:29:55;;;;;;;9.75;5.10;;;0.90;79.90;;;;;;5057967;28;20040;-80
2021/12/03 04:32:22;;;;;;;5.82;4.20;;;0.90;79.80;;;;;;5058079;28;20035;-78
2021/12/03 04:34:48;;;;;;;8.45;4.57;;;0.90;79.90;;;;;;5057662;28;20029;-83
2021/12/03 04:37:13;;;;;;;9.23;5.10;;;0.90;79.90;;;;;;5040882;28;20020;-80
2021/12/03 04:39:40;;;;;;;11.85;5.88;;;0.80;79.90;;;;;;5075508;28;20024;-81
2021/12/03 04:42:07;;;;;;;11.45;6.15;;;0.80;80.00;;;;;;5040696;28;20067;-80
2021/12/03 04:44:35;;;;;;;15.25;7.57;;;0.80;79.70;;;;;;5057156;28;20028;-83
2021/12/03 04:47:02;;;;;;;11.68;6.22;;;0.80;80.00;;;;;;5041104;28;20463;-79
2021/12/03 04:49:28;;;;;;;12.10;6.78;;;1.30;90.90;;;;;;5057325;28;20020;-80
2021/12/03 04:51:55;;;;;;;11.32;6.25;;;2.00;97.10;;;;;;5057094;28;20525;-78
2021/12/03 04:54:24;;;;;;;8.18;5.35;;;2.70;98.20;;;;;;5040045;28;20139;-83
2021/12/03 04:56:51;;;;;;;77.53;15.45;;;3.10;90.90;;;;;;5057106;28;20020;-78
2021/12/03 04:59:25;;;;;;;14.55;5.18;;;3.50;84.00;;;;;;5057210;28;20025;-84
2021/12/03 05:01:54;;;;;;;11.70;5.53;;;3.70;78.70;;;;;;5037753;28;20029;-84
2021/12/03 05:04:21;;;;;;;8.57;4.55;;;3.80;76.10;;;;;;5056752;28;20028;-82
2021/12/03 05:09:32;;;;;;;11.85;5.63;;;3.30;70.40;;;;;;5075129;28;20038;-81
2021/12/03 05:11:59;;;;;;;6.80;4.43;;;2.70;71.10;;;;;;5056774;28;20024;-81
2021/12/03 05:14:24;;;;;;;4.68;3.60;;;2.40;73.10;;;;;;5039840;28;20177;-75
2021/12/03 05:16:50;;;;;;;5.88;3.78;;;2.20;74.40;;;;;;5073597;28;20433;-78
2021/12/03 05:19:17;;;;;;;6.50;4.05;;;2.10;75.40;;;;;;5056012;28;20118;-80
2021/12/03 05:21:44;;;;;;;6.53;4.72;;;2.00;76.00;;;;;;5055610;28;20074;-80
2021/12/03 05:24:11;;;;;;;7.20;4.90;;;1.90;76.30;;;;;;5055992;28;20032;-80
2021/12/03 05:26:38;;;;;;;8.88;5.07;;;1.70;76.50;;;;;;5056329;28;20021;-75
2021/12/03 05:29:05;;;;;;;11.43;5.13;;;1.60;76.80;;;;;;5056226;28;20115;-80
2021/12/03 05:31:36;;;;;;;10.30;5.95;;;1.50;77.20;;;;;;5056134;28;20106;-80
2021/12/03 05:34:04;;;;;;;7.57;4.82;;;1.40;77.80;;;;;;5056617;28;20037;-80
2021/12/03 05:36:30;;;;;;;8.38;5.72;;;1.30;78.10;;;;;;5056483;28;20032;-80
2021/12/03 05:38:56;;;;;;;9.55;6.28;;;1.30;78.90;;;;;;5056346;28;20028;-81
2021/12/03 05:41:21;;;;;;;10.55;5.75;;;1.20;78.10;;;;;;5074186;28;20066;-80
2021/12/03 05:43:47;;;;;;;12.55;6.25;;;1.20;78.10;;;;;;5074481;28;20036;-80
2021/12/03 05:46:14;;;;;;;11.43;5.85;;;1.10;78.40;;;;;;5074079;28;20052;-80
2021/12/03 05:48:39;;;;;;;10.45;6.85;;;1.10;78.50;;;;;;5074143;28;20539;-79
2021/12/03 05:51:06;;;;;;;9.93;6.03;;;1.00;78.80;;;;;;5074318;28;20081;-79
2021/12/03 05:53:33;;;;;;;8.45;5.57;;;1.00;78.70;;;;;;5073872;28;20017;-79
2021/12/03 05:55:59;;;;;;;9.60;5.95;;;1.00;79.40;;;;;;5073772;28;20055;-75
2021/12/03 05:58:25;;;;;;;13.73;6.30;;;1.00;78.60;;;;;;5073548;28;20046;-75
2021/12/03 06:00:50;;;;;;;11.05;6.05;;;1.00;78.50;;;;;;5073776;28;20085;-78
2021/12/03 06:03:16;;;;;;;10.85;6.57;;;1.00;78.60;;;;;;5055726;28;20032;-79
2021/12/03 06:05:42;;;;;;;13.23;6.57;;;1.00;78.60;;;;;;5073418;28;20031;-76
2021/12/03 06:08:08;;;;;;;12.52;7.15;;;1.00;78.50;;;;;;5073555;28;20070;-76
2021/12/03 06:10:34;;;;;;;13.85;6.32;;;1.00;78.10;;;;;;5073553;28;20059;-75
2021/12/03 06:13:00;;;;;;;11.85;6.63;;;0.90;78.50;;;;;;5073390;28;20031;-78
2021/12/03 06:15:27;;;;;;;15.32;6.43;;;1.00;78.60;;;;;;5073294;28;20036;-77
2021/12/03 06:17:53;;;;;;;12.98;6.93;;;1.00;78.50;;;;;;5073215;28;20031;-75
2021/12/03 06:20:19;;;;;;;10.93;6.35;;;0.90;78.40;;;;;;5083039;28;20032;-75
2021/12/03 06:22:46;;;;;;;15.00;7.97;;;1.00;78.40;;;;;;5088306;28;20480;-75
2021/12/03 06:25:13;;;;;;;11.93;6.75;;;1.00;78.30;;;;;;5074841;28;20021;-78
2021/12/03 06:27:40;;;;;;;10.23;5.78;;;0.90;78.30;;;;;;5073132;28;20115;-77
2021/12/03 06:30:12;;;;;;;11.00;6.10;;;0.90;78.30;;;;;;5072653;28;20054;-77
2021/12/03 06:32:38;;;;;;;11.30;5.38;;;0.80;78.40;;;;;;5072791;28;20036;-80
2021/12/03 06:35:07;;;;;;;11.00;5.53;;;0.70;78.80;;;;;;5054719;28;20117;-78
2021/12/03 06:37:32;;;;;;;9.77;5.63;;;0.80;78.90;;;;;;5072825;28;20544;-81
2021/12/03 06:39:58;;;;;;;9.63;5.82;;;0.80;79.00;;;;;;5072908;28;20056;-79
2021/12/03 06:42:25;;;;;;;9.85;5.47;;;0.80;79.10;;;;;;5072174;28;20057;-78
2021/12/03 06:44:50;;;;;;;14.77;7.15;;;0.80;79.00;;;;;;5054867;28;20136;-78
2021/12/03 06:47:17;;;;;;;12.27;7.45;;;0.80;79.00;;;;;;5072638;28;20025;-78
2021/12/03 06:49:43;;;;;;;15.48;7.50;;;0.80;79.20;;;;;;5072809;28;20104;-78
2021/12/03 06:52:12;;;;;;;10.73;6.10;;;0.80;79.40;;;;;;5072677;28;20067;-78
2021/12/03 06:54:38;;;;;;;12.25;7.35;;;0.70;79.70;;;;;;5072751;28;20119;-77
2021/12/03 06:57:07;;;;;;;17.10;8.18;;;0.70;80.00;;;;;;5072626;28;20048;-79
2021/12/03 06:59:33;;;;;;;17.33;9.77;;;0.70;80.20;;;;;;5072718;28;20043;-78
2021/12/03 07:01:59;;;;;;;24.63;15.93;;;0.70;80.40;;;;;;5072922;28;20122;-79
2021/12/03 07:04:25;;;;;;;30.75;18.20;;;0.70;80.60;;;;;;5072601;28;20024;-76
2021/12/03 07:06:51;;;;;;;28.25;16.30;;;0.70;80.70;;;;;;5072694;28;20095;-79
2021/12/03 07:09:17;;;;;;;35.03;17.42;;;0.60;80.80;;;;;;5072589;28;20016;-79
2021/12/03 07:11:43;;;;;;;31.98;18.63;;;0.60;81.10;;;;;;5072525;28;20024;-77
2021/12/03 07:14:09;;;;;;;34.35;18.20;;;0.60;81.30;;;;;;5072397;28;20051;-77
2021/12/03 07:16:35;;;;;;;30.20;16.52;;;0.60;81.40;;;;;;5072619;28;20021;-78
2021/12/03 07:19:00;;;;;;;26.85;15.10;;;0.50;81.40;;;;;;5072602;28;20507;-78
2021/12/03 07:21:26;;;;;;;22.48;13.43;;;0.50;81.60;;;;;;5072723;28;20037;-77
2021/12/03 07:23:53;;;;;;;19.50;11.30;;;0.50;81.60;;;;;;5072203;28;20384;-78
2021/12/03 07:26:21;;;;;;;15.02;8.75;;;0.50;81.60;;;;;;5072382;28;20020;-79
2021/12/03 07:28:47;;;;;;;14.02;8.00;;;0.60;81.50;;;;;;5072441;28;20028;-79
2021/12/03 07:31:13;;;;;;;17.67;8.90;;;0.60;81.20;;;;;;5071626;28;20048;-77
2021/12/03 07:33:40;;;;;;;20.15;10.57;;;0.60;80.80;;;;;;5072338;28;20373;-77
2021/12/03 07:36:06;;;;;;;19.77;9.85;;;0.60;80.60;;;;;;5072438;28;20071;-75
2021/12/03 07:38:33;;;;;;;13.93;7.10;;;0.70;80.20;;;;;;5072266;28;20108;-74
2021/12/03 07:40:58;;;;;;;12.45;6.50;;;0.70;79.50;;;;;;5072269;28;20111;-74
2021/12/03 07:43:24;;;;;;;11.73;6.28;;;0.80;79.00;;;;;;5071753;28;20052;-74
2021/12/03 07:45:50;;;;;;;11.60;5.65;;;0.70;78.60;;;;;;5072187;28;20024;-74
2021/12/03 07:48:16;;;;;;;12.52;6.18;;;0.80;78.50;;;;;;5072049;28;20029;-74
2021/12/03 07:50:43;;;;;;;17.23;7.88;;;0.80;78.50;;;;;;5072165;28;20346;-74
2021/12/03 07:53:14;;;;;;;14.68;6.97;;;0.90;78.20;;;;;;5073504;28;20016;-75
2021/12/03 07:55:40;;;;;;;16.98;7.63;;;0.80;77.90;;;;;;5075739;28;20040;-74
2021/12/03 07:58:06;;;;;;;11.70;6.10;;;0.80;78.10;;;;;;5075589;28;20400;-74
2021/12/03 08:00:32;;;;;;;12.40;6.40;;;0.80;78.20;;;;;;5075526;28;20021;-74
2021/12/03 08:02:58;;;;;;;11.35;6.28;;;0.90;78.40;;;;;;5057484;28;20028;-74
2021/12/03 08:05:23;;;;;;;16.27;7.05;;;1.00;78.10;;;;;;5075643;28;20032;-75
2021/12/03 08:07:50;;;;;;;15.57;8.57;;;1.00;77.70;;;;;;5075562;28;20016;-74
2021/12/03 08:10:16;;;;;;;15.82;7.80;;;1.00;77.50;;;;;;5075353;28;20052;-75
2021/12/03 08:12:44;;;;;;;12.40;7.68;;;1.10;77.60;;;;;;5075356;28;20025;-74
2021/12/03 08:15:09;;;;;;;18.63;8.40;;;1.20;77.40;;;;;;5075062;28;20082;-75
2021/12/03 08:17:36;;;;;;;12.73;7.60;;;1.30;77.10;;;;;;5075166;28;20017;-75
2021/12/03 08:20:02;;;;;;;14.95;7.18;;;1.40;76.70;;;;;;5075228;28;20025;-75
2021/12/03 08:22:28;;;;;;;11.05;6.78;;;1.60;76.40;;;;;;5075234;28;20104;-75
2021/12/03 08:24:54;;;;;;;11.85;6.55;;;1.60;76.00;;;;;;5075097;28;20110;-75
2021/12/03 08:27:20;;;;;;;12.40;5.88;;;1.80;75.70;;;;;;5075124;28;20020;-75
2021/12/03 08:29:46;;;;;;;9.70;6.35;;;1.90;75.70;;;;;;5075311;28;20041;-75
2021/12/03 08:32:11;;;;;;;11.23;6.25;;;2.00;74.80;;;;;;5078790;28;20032;-75
2021/12/03 08:34:37;;;;;;;12.80;6.18;;;2.10;74.60;;;;;;5078783;28;20473;-75
2021/12/03 08:37:06;;;;;;;11.68;6.43;;;2.30;74.30;;;;;;5075125;28;20074;-75
2021/12/03 08:39:32;;;;;;;12.20;5.88;;;2.50;73.90;;;;;;5075109;28;20103;-75
2021/12/03 08:41:58;;;;;;;12.20;6.00;;;2.70;72.90;;;;;;5075009;28;20483;-75
2021/12/03 08:44:24;;;;;;;12.68;6.90;;;2.80;72.60;;;;;;5074773;28;20028;-75
2021/12/03 08:46:57;;;;;;;9.40;5.40;;;3.00;71.50;;;;;;5074692;28;20017;-76
2021/12/03 08:57:11;;;;;;;10.20;5.38;;;3.60;66.90;;;;;;5079894;28;20031;-75
2021/12/03 08:59:37;;;;;;;8.73;5.20;;;3.80;66.00;;;;;;5074518;28;20024;-75
2021/12/03 09:02:03;;;;;;;6.00;4.28;;;3.90;65.20;;;;;;5074338;28;20027;-75
2021/12/03 09:04:29;;;;;;;8.32;5.50;;;4.00;64.40;;;;;;5073474;28;20039;-75
2021/12/03 09:06:56;;;;;;;9.80;4.00;;;4.00;63.50;;;;;;5074285;28;20024;-75
2021/12/03 09:09:22;;;;;;;5.38;3.75;;;4.20;63.00;;;;;;5074155;28;20502;-76
2021/12/03 09:11:48;;;;;;;6.57;3.35;;;4.40;61.30;;;;;;5074069;28;20025;-75
2021/12/03 09:14:18;;;;;;;4.32;2.95;;;4.60;58.40;;;;;;5073957;28;20075;-75
2021/12/03 09:16:46;;;;;;;6.75;3.38;;;4.60;56.00;;;;;;5074210;28;20025;-75
2021/12/03 09:19:19;;;;;;;5.32;2.55;;;4.90;55.80;;;;;;5074113;28;20036;-76
2021/12/03 09:21:46;;;;;;;4.55;2.20;;;5.00;53.10;;;;;;5074289;28;20049;-76
2021/12/03 09:24:14;;;;;;;3.50;2.20;;;4.90;51.70;;;;;;5056070;28;20025;-76
2021/12/03 09:26:41;;;;;;;3.25;2.15;;;4.60;51.80;;;;;;5074412;28;20489;-76
2021/12/03 09:29:11;;;;;;;4.40;2.40;;;4.30;52.50;;;;;;5074051;28;20109;-76
2021/12/03 09:31:41;;;;;;;3.22;2.05;;;4.30;53.60;;;;;;5073723;28;20052;-76
2021/12/03 09:34:14;;;;;;;3.70;2.05;;;4.30;52.70;;;;;;5073907;28;20058;-75
2021/12/03 09:36:41;;;;;;;3.03;2.25;;;4.30;52.60;;;;;;5073621;28;20103;-75
2021/12/03 09:39:09;;;;;;;4.35;2.08;;;4.40;52.30;;;;;;5073714;28;20106;-75
2021/12/03 09:41:35;;;;;;;3.40;2.28;;;4.50;52.40;;;;;;5073652;28;20598;-75
2021/12/03 09:44:01;;;;;;;6.13;2.83;;;4.70;51.60;;;;;;5073919;28;20040;-79
2021/12/03 09:46:28;;;;;;;7.03;2.35;;;4.90;51.30;;;;;;5073575;28;20481;-78
2021/12/03 09:49:19;;;;;;;5.15;2.40;;;5.30;50.60;;;;;;5073750;28;20017;-79
2021/12/03 09:51:53;;;;;;;3.92;2.47;;;5.30;49.50;;;;;;5073220;28;20431;-79
2021/12/03 09:54:29;;;;;;;3.15;2.20;;;5.20;50.30;;;;;;5073528;28;20546;-79
2021/12/03 09:57:09;;;;;;;;;;;5.20;49.00;;;;;;5073942;28;20050;-78
2021/12/03 10:05:32;;;;;;;3.22;1.95;;;5.60;48.40;;;;;;5017771;28;20025;-76
2021/12/03 10:18:45;;;;;;;2.75;1.50;;;5.00;47.90;;;;;;5073078;28;20425;-76
2021/12/03 10:21:20;;;;;;;1.88;1.45;;;5.10;49.00;;;;;;5055111;28;20020;-74
2021/12/03 10:29:07;;;;;;;2.60;1.83;;;5.40;48.50;;;;;;5073220;28;20028;-78
2021/12/03 10:45:14;;;;;;;1.70;1.30;;;5.50;45.40;;;;;;5084181;28;20044;-74
2021/12/03 10:50:40;;;;;;;2.38;1.48;;;5.30;47.20;;;;;;5084473;28;20028;-74
2021/12/03 10:53:23;;;;;;;1.83;1.58;;;5.40;47.20;;;;;;5059769;28;20076;-76
2021/12/03 10:58:38;;;;;;;2.00;1.50;;;5.70;46.70;;;;;;5050532;28;20033;-76
2021/12/03 11:13:10;;;;;;;3.40;1.92;;;7.30;42.10;;;;;;5050233;28;20087;-78
2021/12/03 11:29:18;;;;;;;2.38;1.38;;;8.80;37.70;;;;;;5075276;28;20025;-79
2021/12/03 11:33:40;;;;;;;;;;;9.90;36.20;;;;;;5076018;28;20036;-77
2021/12/03 11:40:30;;;;;;;3.08;1.45;;;10.10;33.40;;;;;;5075558;28;20097;-76
2021/12/03 11:43:49;;;;;;;3.42;1.20;;;11.10;33.20;;;;;;5075411;28;20023;-77
2021/12/03 12:44:30;;;;;;;2.08;1.23;;;9.40;32.50;;;;;;5055260;28;20469;-77
2021/12/03 13:17:42;;;;;;;2.70;1.90;;;9.40;34.50;;;;;;5054233;28;20031;-79
2021/12/03 14:44:38;;;;;;;3.63;0.95;;;5.80;44.30;;;;;;5072549;28;20029;-83
2021/12/03 14:52:17;;;;;;;3.45;1.58;;;5.20;46.50;;;;;;5072862;28;20024;-78
2021/12/03 15:00:56;;;;;;;1.42;1.10;;;4.30;50.80;;;;;;5073111;28;20059;-79
2021/12/03 15:08:35;;;;;;;10.88;4.72;;;4.00;51.50;;;;;;5079330;28;20025;-79
2021/12/03 15:11:37;;;;;;;5.43;2.45;;;3.70;51.70;;;;;;5061319;28;20469;-78
2021/12/03 15:27:26;;;;;;;3.67;1.50;;;2.60;55.50;;;;;;5079367;28;20039;-77
2021/12/03 15:30:17;;;;;;;3.25;1.60;;;2.50;56.70;;;;;;5061007;28;20048;-79
2021/12/03 15:32:59;;;;;;;5.28;1.45;;;2.50;56.60;;;;;;5061497;28;20499;-77
2021/12/03 15:54:50;;;;;;;2.78;1.30;;;2.30;56.00;;;;;;5058639;28;20123;-78
2021/12/03 15:57:28;;;;;;;2.25;1.52;;;2.20;55.60;;;;;;5038013;28;20025;-80
2021/12/03 16:51:25;;;;;;;5.75;2.60;;;1.80;63.50;;;;;;5055377;28;20078;-80
2021/12/03 16:53:54;;;;;;;4.22;2.45;;;1.70;63.40;;;;;;5037021;28;20128;-80
2021/12/03 16:56:29;;;;;;;4.78;2.33;;;1.70;63.70;;;;;;5037904;28;20086;-79
2021/12/03 16:58:58;;;;;;;6.72;3.25;;;1.70;64.10;;;;;;5036720;28;20025;-81
2021/12/03 17:01:32;;;;;;;6.53;3.25;;;1.80;64.40;;;;;;5036894;28;20472;-81
2021/12/03 17:47:20;;;;;;;3.78;2.05;;;2.00;58.60;;;;;;5054191;28;20036;-76
2021/12/03 17:57:53;;;;;;;4.35;2.30;;;2.00;57.40;;;;;;5055107;28;20036;-82
2021/12/03 18:00:30;;;;;;;6.93;3.28;;;2.00;58.80;;;;;;5025114;28;20058;-85
2021/12/03 18:03:04;;;;;;;6.30;2.50;;;2.10;58.20;;;;;;5039674;28;20028;-83
2021/12/03 18:08:22;;;;;;;6.30;3.20;;;2.10;59.00;;;;;;5054164;28;20040;-77
2021/12/03 18:19:14;;;;;;;6.70;3.08;;;2.20;60.60;;;;;;5054390;28;20036;-76
2021/12/03 18:51:41;;;;;;;10.57;3.83;;;2.30;60.00;;;;;;5035806;28;20033;-77
2021/12/03 18:56:45;;;;;;;5.00;2.53;;;2.40;58.50;;;;;;5053209;28;20021;-78
2021/12/03 18:59:11;;;;;;;4.65;2.50;;;2.50;56.60;;;;;;5035391;28;20489;-79
2021/12/03 19:01:37;;;;;;;7.45;2.53;;;2.50;55.10;;;;;;5035931;28;20029;-80
2021/12/03 19:04:20;;;;;;;5.72;2.92;;;2.50;54.50;;;;;;5035815;28;20022;-80
2021/12/03 19:07:02;;;;;;;6.60;2.95;;;2.50;54.90;;;;;;5035565;28;20132;-76
2021/12/03 19:09:33;;;;;;;3.30;2.15;;;2.50;53.10;;;;;;5052898;28;20470;-78
2021/12/03 19:14:34;;;;;;;3.35;1.77;;;2.40;52.70;;;;;;5052451;28;20033;-77
2021/12/03 19:17:00;;;;;;;3.22;1.88;;;2.40;51.10;;;;;;5052852;28;20041;-77
2021/12/03 19:19:28;;;;;;;4.32;1.75;;;2.40;51.10;;;;;;5034902;28;20039;-78
2021/12/03 19:21:58;;;;;;;3.13;1.60;;;2.50;50.70;;;;;;5034822;28;20013;-79
2021/12/03 19:24:26;;;;;;;3.67;1.40;;;2.50;50.50;;;;;;5035330;28;20036;-73
2021/12/03 19:26:52;;;;;;;3.88;1.60;;;2.40;49.80;;;;;;5052871;28;20025;-74
2021/12/03 19:29:20;;;;;;;3.63;2.20;;;2.50;49.10;;;;;;5034920;28;20029;-77
2021/12/03 19:31:48;;;;;;;4.07;2.28;;;2.50;50.00;;;;;;5034710;28;20124;-75
2021/12/03 19:34:14;;;;;;;2.17;1.40;;;2.60;49.80;;;;;;5052471;28;20029;-74
2021/12/03 19:36:44;;;;;;;5.43;2.13;;;2.60;49.20;;;;;;5035112;28;20032;-75
2021/12/03 19:39:12;;;;;;;4.00;1.58;;;2.60;49.40;;;;;;5035013;28;20021;-77
2021/12/03 19:44:13;;;;;;;2.97;1.27;;;2.70;48.80;;;;;;5054543;28;20059;-83
2021/12/03 19:46:44;;;;;;;1.60;1.15;;;2.70;48.30;;;;;;5020869;28;20361;-81
2021/12/03 19:51:47;;;;;;;3.75;2.15;;;2.90;51.10;;;;;;5057725;28;20040;-80
2021/12/03 19:54:15;;;;;;;7.07;2.35;;;2.90;52.00;;;;;;5056995;28;20086;-80
2021/12/03 19:56:41;;;;;;;3.35;1.60;;;2.90;51.20;;;;;;5040704;28;20109;-88
2021/12/03 19:59:07;;;;;;;4.43;2.05;;;3.00;51.40;;;;;;5041323;28;20036;-82
2021/12/03 20:01:34;;;;;;;2.75;1.88;;;2.90;52.00;;;;;;5044398;28;20075;-84
2021/12/03 20:04:01;;;;;;;5.60;1.92;;;2.80;51.70;;;;;;5041832;28;20021;-80
2021/12/03 20:06:28;;;;;;;5.43;1.65;;;2.90;53.20;;;;;;5039864;28;20094;-81
2021/12/03 20:08:56;;;;;;;5.32;1.90;;;2.90;53.00;;;;;;5040229;28;20506;-79
2021/12/03 20:11:27;;;;;;;4.97;3.22;;;2.90;54.10;;;;;;5038899;28;20024;-76
2021/12/03 20:13:58;;;;;;;11.68;6.00;;;2.90;54.20;;;;;;5038829;28;20436;-77
2021/12/03 20:18:52;;;;;;;41.83;21.02;;;2.90;54.70;;;;;;5056590;28;20025;-80
2021/12/03 20:21:19;;;;;;;16.42;7.55;;;3.00;56.10;;;;;;5038915;28;20021;-77
2021/12/03 20:24:19;;;;;;;36.75;15.77;;;3.00;53.70;;;;;;5038955;28;20461;-79
2021/12/03 20:26:52;;;;;;;16.10;8.60;;;3.10;52.60;;;;;;5057283;28;20029;-78
2021/12/03 20:32:35;;;;;;;16.50;8.10;;;3.10;49.30;;;;;;5064280;28;20127;-82
2021/12/03 20:35:37;;;;;;;2.38;1.80;;;3.00;51.20;;;;;;5039999;28;20299;-81
2021/12/03 20:38:13;;;;;;;2.33;1.73;;;3.00;49.10;;;;;;5056955;28;20035;-81
2021/12/03 20:40:50;;;;;;;2.50;1.60;;;3.00;50.40;;;;;;5056805;28;20025;-81
2021/12/03 20:43:53;;;;;;;5.30;2.58;;;3.10;49.00;;;;;;5050428;28;20385;-82